Time;durP1;ratioP1;P1;durP2;ratioP2;P2;SDS_P1;SDS_P2;PMS_P1;PMS_P2;Temp;Humidity;BMP_temperature;BMP_pressure;BME280_temperature;BME280_humidity;BME280_pressure;Samples;Min_cycle;Max_cycle;Signal;HPM_P1;HPM_P2
2021/09/22 00:01:21;;;;;;;12.23;10.97;;;;;;;13.45;52.38;99142.66;8453006;28;20210;-64
2021/09/22 00:05:24;;;;;;;13.90;11.37;;;;;;;13.36;52.73;99132.59;8420413;28;20206;-64
2021/09/22 00:09:28;;;;;;;12.97;10.80;;;;;;;13.39;52.59;99137.69;8420611;28;20199;-63
2021/09/22 00:13:32;;;;;;;11.60;10.40;;;;;;;13.44;52.54;99133.16;8420453;28;20489;-64
2021/09/22 00:17:35;;;;;;;11.13;10.00;;;;;;;13.46;52.42;99131.34;8420376;28;20214;-64
2021/09/22 00:21:38;;;;;;;11.27;10.00;;;;;;;13.31;52.62;99131.94;8419912;28;20506;-64
2021/09/22 00:25:41;;;;;;;11.60;10.57;;;;;;;13.24;52.62;99130.41;8420037;28;20203;-64
2021/09/22 00:29:46;;;;;;;12.70;10.93;;;;;;;13.28;52.41;99139.81;8419799;28;20203;-64
2021/09/22 00:33:48;;;;;;;12.23;10.93;;;;;;;13.22;52.47;99125.28;8419480;28;20227;-64
2021/09/22 00:37:51;;;;;;;11.53;10.33;;;;;;;13.30;52.40;99128.47;8419482;28;20210;-64
2021/09/22 00:41:54;;;;;;;11.73;10.53;;;;;;;13.18;52.64;99122.84;8419368;28;20199;-64
2021/09/22 00:46:04;;;;;;;13.60;10.43;;;;;;;13.29;52.60;99133.72;8419485;28;20381;-64
2021/09/22 00:50:08;;;;;;;11.40;10.47;;;;;;;13.22;52.40;99129.63;8419200;28;20270;-64
2021/09/22 00:54:12;;;;;;;11.40;10.30;;;;;;;13.17;52.85;99126.34;8417874;28;20226;-64
2021/09/22 00:58:15;;;;;;;11.27;10.17;;;;;;;13.18;52.50;99128.88;8418676;28;20235;-64
2021/09/22 01:02:19;;;;;;;11.60;10.50;;;;;;;13.09;52.72;99124.03;8430211;28;20206;-64
2021/09/22 01:06:23;;;;;;;11.30;10.20;;;;;;;13.04;52.53;99133.72;8452299;28;20277;-64
2021/09/22 01:10:26;;;;;;;10.90;9.83;;;;;;;13.11;52.43;99125.66;8452140;28;20449;-64
2021/09/22 01:14:29;;;;;;;11.73;10.47;;;;;;;13.05;52.48;99112.03;8451572;28;20226;-64
2021/09/22 01:18:34;;;;;;;10.93;9.90;;;;;;;13.04;52.67;99108.59;8451634;28;20202;-64
2021/09/22 01:22:38;;;;;;;10.67;9.77;;;;;;;13.02;52.42;99102.59;8451680;28;20198;-64
2021/09/22 01:26:41;;;;;;;11.23;10.03;;;;;;;12.98;52.24;99100.16;8451264;28;20202;-64
2021/09/22 01:30:44;;;;;;;11.00;9.90;;;;;;;12.93;52.58;99100.34;8451289;28;20202;-64
2021/09/22 01:34:47;;;;;;;11.27;10.17;;;;;;;12.88;52.66;99090.06;8451102;28;20533;-64
2021/09/22 01:38:51;;;;;;;11.10;10.00;;;;;;;12.90;52.43;99088.28;8451104;28;20203;-64
2021/09/22 01:42:54;;;;;;;11.07;10.07;;;;;;;12.85;52.52;99072.00;8450685;28;20198;-64
2021/09/22 01:46:57;;;;;;;11.37;10.27;;;;;;;12.79;52.73;99072.22;8450921;28;20391;-64
2021/09/22 01:51:02;;;;;;;10.70;9.70;;;;;;;12.82;52.49;99077.31;8450833;28;20209;-64
2021/09/22 01:55:07;;;;;;;11.83;10.13;;;;;;;12.82;52.48;99068.66;8450504;28;20234;-64
2021/09/22 01:59:10;;;;;;;10.90;9.80;;;;;;;12.67;52.67;99078.69;8450488;28;20198;-64
2021/09/22 02:03:15;;;;;;;11.10;10.10;;;;;;;12.64;53.00;99084.03;8449984;28;20205;-64
2021/09/22 02:07:19;;;;;;;11.07;9.93;;;;;;;12.57;52.91;99066.09;8450262;28;20225;-64
2021/09/22 02:11:24;;;;;;;10.50;9.60;;;;;;;12.57;52.84;99066.94;8450221;28;20223;-64
2021/09/22 02:15:30;;;;;;;10.77;9.77;;;;;;;12.62;52.70;99077.16;8449996;28;20226;-64
2021/09/22 02:19:33;;;;;;;10.50;9.50;;;;;;;12.53;52.63;99070.56;8450314;28;20383;-64
2021/09/22 02:23:36;;;;;;;10.80;9.80;;;;;;;12.57;52.67;99084.28;8449817;28;20206;-64
2021/09/22 02:27:41;;;;;;;11.17;10.00;;;;;;;12.59;52.74;99079.88;8449893;28;20240;-64
2021/09/22 02:31:47;;;;;;;11.20;10.10;;;;;;;12.49;53.08;99077.59;8449505;28;20198;-64
2021/09/22 02:35:50;;;;;;;12.03;9.90;;;;;;;12.58;52.92;99075.56;8449441;28;20226;-64
2021/09/22 02:39:55;;;;;;;11.47;10.17;;;;;;;12.40;53.19;99090.91;8449350;28;20203;-64
2021/09/22 02:44:03;;;;;;;11.40;10.37;;;;;;;12.40;52.96;99082.25;8449857;28;20198;-64
2021/09/22 02:48:06;;;;;;;11.27;10.23;;;;;;;12.30;53.37;99086.94;8449637;28;20202;-64
2021/09/22 02:52:09;;;;;;;11.77;10.50;;;;;;;12.37;53.79;99090.16;8449398;28;20493;-64
2021/09/22 02:56:12;;;;;;;11.77;10.57;;;;;;;12.44;53.82;99083.84;8449288;28;20431;-64
2021/09/22 03:00:17;;;;;;;11.63;10.53;;;;;;;12.57;53.44;99090.31;8449177;28;20198;-64
2021/09/22 03:04:20;;;;;;;11.63;10.57;;;;;;;12.58;53.57;99091.16;8449107;28;20390;-64
2021/09/22 03:08:22;;;;;;;13.97;10.40;;;;;;;12.40;54.27;99097.84;8448814;28;20209;-64
2021/09/22 03:12:25;;;;;;;12.13;10.93;;;;;;;12.34;54.52;99106.69;8447916;28;20521;-64
2021/09/22 03:16:31;;;;;;;13.60;11.10;;;;;;;12.60;53.77;99105.78;8451801;28;20222;-64
2021/09/22 03:20:37;;;;;;;11.53;10.43;;;;;;;12.55;54.09;99105.13;8455712;28;20202;-64
2021/09/22 03:24:40;;;;;;;11.50;10.40;;;;;;;12.62;54.02;99104.00;8455546;28;20198;-64
2021/09/22 03:28:43;;;;;;;12.77;10.70;;;;;;;12.59;54.33;99104.09;8455380;28;20198;-64
2021/09/22 03:32:47;;;;;;;12.17;10.93;;;;;;;12.63;54.12;99103.09;8455015;28;20218;-64
2021/09/22 03:36:50;;;;;;;11.87;10.73;;;;;;;12.63;54.08;99092.69;8454872;28;20233;-64
2021/09/22 03:40:53;;;;;;;11.87;10.70;;;;;;;12.68;53.71;99093.41;8454782;28;20199;-64
2021/09/22 03:44:56;;;;;;;12.13;11.07;;;;;;;12.72;53.75;99081.16;8454118;28;20205;-64
2021/09/22 03:49:01;;;;;;;11.57;10.47;;;;;;;12.68;53.95;99088.19;8453733;28;20380;-65
2021/09/22 03:53:04;;;;;;;11.30;10.20;;;;;;;12.67;53.86;99075.25;8454459;28;20396;-64
2021/09/22 03:57:07;;;;;;;13.60;11.40;;;;;;;12.63;53.98;99087.50;8454085;28;20436;-64
2021/09/22 04:01:15;;;;;;;11.40;10.30;;;;;;;12.69;54.09;99086.44;8454108;28;20203;-64
2021/09/22 04:05:20;;;;;;;12.87;10.53;;;;;;;12.72;54.35;99081.16;8454068;28;20203;-64
2021/09/22 04:09:23;;;;;;;12.03;10.87;;;;;;;12.79;54.60;99080.00;8453992;28;20210;-65
2021/09/22 04:13:26;;;;;;;11.57;10.40;;;;;;;12.83;54.24;99083.34;8453958;28;20209;-64
2021/09/22 04:17:29;;;;;;;13.37;11.37;;;;;;;12.85;54.58;99082.41;8453730;28;20232;-64
2021/09/22 04:21:33;;;;;;;11.97;10.77;;;;;;;12.92;54.69;99088.22;8453499;28;20194;-64
2021/09/22 04:25:36;;;;;;;12.33;11.03;;;;;;;12.86;54.76;99091.03;8453429;28;20210;-64
2021/09/22 04:29:39;;;;;;;19.10;12.07;;;;;;;12.90;54.80;99090.88;8453379;28;20205;-64
2021/09/22 04:33:41;;;;;;;13.07;11.53;;;;;;;12.93;55.03;99099.47;8453217;28;20533;-64
2021/09/22 04:37:47;;;;;;;12.00;10.90;;;;;;;12.97;55.03;99088.91;8453015;28;20222;-64
2021/09/22 04:41:52;;;;;;;13.13;11.70;;;;;;;13.00;55.12;99088.78;8452977;28;20198;-64
2021/09/22 04:45:55;;;;;;;12.10;10.90;;;;;;;13.01;55.11;99082.69;8452780;28;20225;-64
2021/09/22 04:49:58;;;;;;;12.83;11.47;;;;;;;13.03;54.56;99087.84;8452620;28;20210;-64
2021/09/22 04:54:02;;;;;;;12.60;11.33;;;;;;;13.09;54.68;99096.25;8452053;28;20218;-64
2021/09/22 04:58:05;;;;;;;13.37;11.83;;;;;;;13.07;54.67;99092.03;8452353;28;20238;-64
2021/09/22 05:02:08;;;;;;;12.47;11.17;;;;;;;13.07;54.62;99089.41;8451648;28;20508;-64
2021/09/22 05:06:12;;;;;;;12.50;10.97;;;;;;;13.12;54.82;99090.09;8452060;28;20385;-64
2021/09/22 05:10:16;;;;;;;15.93;11.23;;;;;;;13.15;54.93;99087.38;8451980;28;20198;-64
2021/09/22 05:14:19;;;;;;;13.17;11.77;;;;;;;13.17;54.68;99089.94;8451842;28;20203;-64
2021/09/22 05:18:22;;;;;;;12.60;11.27;;;;;;;13.21;55.06;99088.91;8450894;28;20412;-64
2021/09/22 05:22:25;;;;;;;13.37;11.97;;;;;;;13.17;55.28;99095.13;8450830;28;20202;-64
2021/09/22 05:26:29;;;;;;;14.20;11.67;;;;;;;13.20;55.18;99102.84;8451491;28;20202;-64
2021/09/22 05:30:32;;;;;;;14.17;11.13;;;;;;;13.24;55.21;99102.66;8451210;28;20198;-64
2021/09/22 05:34:35;;;;;;;13.67;11.63;;;;;;;13.29;55.29;99108.53;8451201;28;20219;-64
2021/09/22 05:38:38;;;;;;;17.40;12.30;;;;;;;13.31;55.20;99103.31;8450467;28;20222;-64
2021/09/22 05:42:44;;;;;;;12.00;10.77;;;;;;;13.41;55.27;99107.25;8450919;28;20205;-64
2021/09/22 05:46:47;;;;;;;14.40;12.03;;;;;;;13.40;55.08;99107.31;8450746;28;20501;-64
2021/09/22 05:50:50;;;;;;;13.70;12.20;;;;;;;13.46;55.04;99107.06;8450789;28;20198;-64
2021/09/22 05:54:54;;;;;;;12.90;11.60;;;;;;;13.52;55.24;99111.19;8450470;28;20234;-64
2021/09/22 05:58:58;;;;;;;12.97;11.77;;;;;;;13.56;54.86;99108.44;8450632;28;20335;-64
2021/09/22 06:03:07;;;;;;;13.13;11.73;;;;;;;13.53;55.01;99112.91;8450244;28;20383;-65
2021/09/22 06:07:10;;;;;;;14.93;10.83;;;;;;;13.61;54.75;99111.72;8450475;28;20206;-64
2021/09/22 06:11:13;;;;;;;13.87;11.27;;;;;;;13.69;54.57;99116.63;8450181;28;20198;-65
2021/09/22 06:15:17;;;;;;;16.17;11.73;;;;;;;13.73;54.66;99110.38;8450296;28;20198;-64
2021/09/22 06:19:20;;;;;;;12.23;11.00;;;;;;;13.78;54.62;99118.00;8449867;28;20233;-64
2021/09/22 06:23:23;;;;;;;13.50;11.13;;;;;;;13.89;54.58;99105.41;8450094;28;20198;-64
2021/09/22 06:27:26;;;;;;;16.67;11.87;;;;;;;13.95;54.28;99115.56;8449730;28;20206;-64
2021/09/22 06:31:30;;;;;;;14.10;11.03;;;;;;;13.95;54.21;99110.38;8450041;28;20517;-64
2021/09/22 06:35:33;;;;;;;12.77;10.83;;;;;;;14.13;54.41;99115.78;8449517;28;20218;-64
2021/09/22 06:39:36;;;;;;;12.60;10.60;;;;;;;14.21;54.45;99109.31;8449475;28;20416;-64
2021/09/22 06:43:39;;;;;;;13.43;11.53;;;;;;;14.24;54.63;99106.59;8449432;28;20198;-64
2021/09/22 06:47:44;;;;;;;13.73;10.27;;;;;;;14.31;55.35;99094.16;8449144;28;20207;-64
2021/09/22 06:51:47;;;;;;;15.17;10.77;;;;;;;14.35;54.33;99098.31;8453164;28;20204;-64
2021/09/22 06:55:50;;;;;;;14.37;10.33;;;;;;;14.45;54.62;99106.63;8456222;28;20491;-64
2021/09/22 06:59:53;;;;;;;13.70;9.80;;;;;;;14.64;54.83;99109.31;8456129;28;20555;-64
2021/09/22 07:03:57;;;;;;;12.63;9.57;;;;;;;14.69;54.96;99098.69;8456314;28;20219;-64
2021/09/22 07:08:01;;;;;;;11.40;8.70;;;;;;;14.95;53.76;99092.34;8456089;28;20206;-64
2021/09/22 07:12:05;;;;;;;14.80;8.60;;;;;;;15.05;53.81;99099.69;8455767;28;20204;-64
2021/09/22 07:16:10;;;;;;;8.20;7.33;;;;;;;15.36;52.78;99111.34;8455918;28;20559;-64
2021/09/22 07:20:15;;;;;;;10.10;7.57;;;;;;;15.56;52.46;99106.97;8455784;28;20203;-64
2021/09/22 07:24:20;;;;;;;10.17;6.80;;;;;;;15.67;52.06;99109.06;8455438;28;20198;-64
2021/09/22 07:28:23;;;;;;;8.97;6.70;;;;;;;15.89;51.41;99107.16;8455307;28;20213;-64
2021/09/22 07:32:26;;;;;;;9.57;6.77;;;;;;;15.81;51.24;99109.31;8455246;28;20377;-64
2021/09/22 07:36:31;;;;;;;7.33;5.97;;;;;;;16.01;52.03;99101.38;8455143;28;20237;-64
2021/09/22 07:40:34;;;;;;;10.10;5.90;;;;;;;15.97;51.67;99114.63;8454864;28;20202;-64
2021/09/22 07:44:37;;;;;;;7.13;5.87;;;;;;;15.96;51.89;99123.41;8454749;28;20202;-64
2021/09/22 07:48:40;;;;;;;5.93;5.37;;;;;;;16.16;52.49;99127.66;8454616;28;20202;-64
2021/09/22 07:52:45;;;;;;;7.20;5.57;;;;;;;16.72;51.66;99121.38;8454728;28;20202;-64
2021/09/22 07:56:48;;;;;;;9.97;6.17;;;;;;;16.86;50.33;99125.91;8454250;28;20241;-64
2021/09/22 08:00:51;;;;;;;6.10;4.87;;;;;;;17.23;50.11;99124.00;8453875;28;20210;-64
2021/09/22 08:04:57;;;;;;;6.47;5.53;;;;;;;17.38;48.71;99124.94;8453065;28;20202;-64
2021/09/22 08:09:18;;;;;;;7.10;5.53;;;;;;;17.65;48.18;99127.84;8453964;28;20203;-64
2021/09/22 08:13:22;;;;;;;6.60;5.53;;;;;;;17.97;47.19;99133.97;8453863;28;20202;-64
2021/09/22 08:17:25;;;;;;;7.87;5.80;;;;;;;17.98;47.60;99130.38;8453691;28;20525;-64
2021/09/22 08:21:28;;;;;;;5.97;4.77;;;;;;;18.36;47.59;99132.59;8453672;28;20405;-64
2021/09/22 08:25:32;;;;;;;7.83;4.93;;;;;;;18.19;46.83;99132.72;8453428;28;20199;-64
2021/09/22 08:29:35;;;;;;;6.77;4.00;;;;;;;18.67;46.76;99127.34;8453292;28;20516;-64
2021/09/22 08:33:38;;;;;;;7.57;4.53;;;;;;;18.78;46.44;99124.94;8453152;28;20218;-63
2021/09/22 08:37:41;;;;;;;6.63;4.60;;;;;;;18.97;46.67;99129.13;8453307;28;20225;-63
2021/09/22 08:41:46;;;;;;;5.60;4.33;;;;;;;18.78;48.06;99132.81;8452983;28;20205;-60
2021/09/22 08:45:49;;;;;;;10.20;4.23;;;;;;;18.48;48.27;99144.16;8452883;28;20209;-61
2021/09/22 08:49:52;;;;;;;7.30;4.30;;;;;;;18.84;47.65;99142.97;8452672;28;20501;-61
2021/09/22 08:53:55;;;;;;;5.83;4.10;;;;;;;18.91;47.39;99136.41;8452389;28;20217;-61
2021/09/22 08:58:00;;;;;;;7.10;4.10;;;;;;;18.79;47.44;99136.25;8452245;28;20233;-61
2021/09/22 09:02:09;;;;;;;7.63;4.00;;;;;;;18.95;47.15;99134.44;8452323;28;20209;-61
2021/09/22 09:06:21;;;;;;;8.53;4.27;;;;;;;18.97;46.82;99132.56;8452146;28;20222;-60
2021/09/22 09:10:25;;;;;;;7.83;4.00;;;;;;;18.74;47.91;99139.16;8452378;28;20226;-61
2021/09/22 09:14:34;;;;;;;8.20;3.80;;;;;;;18.93;47.04;99137.16;8451054;28;20385;-61
2021/09/22 09:18:45;;;;;;;6.23;3.37;;;;;;;19.18;46.78;99138.31;8451678;28;20222;-61
2021/09/22 09:23:05;;;;;;;5.87;3.47;;;;;;;19.15;46.72;99135.84;8451652;28;20206;-61
2021/09/22 09:27:10;;;;;;;9.00;3.67;;;;;;;18.93;47.21;99134.53;8450946;28;20362;-61
2021/09/22 09:31:14;;;;;;;5.63;3.70;;;;;;;19.10;47.02;99127.44;8451387;28;20198;-61
2021/09/22 09:35:19;;;;;;;5.30;3.77;;;;;;;19.19;46.42;99128.63;8451238;28;20537;-60
2021/09/22 09:39:23;;;;;;;8.10;3.70;;;;;;;19.14;46.50;99134.19;8451227;28;20222;-60
2021/09/22 09:43:26;;;;;;;4.83;3.87;;;;;;;19.04;47.24;99138.28;8451083;28;20202;-63
2021/09/22 09:47:33;;;;;;;4.60;3.27;;;;;;;19.11;47.45;99136.97;8450693;28;20295;-62
2021/09/22 09:51:42;;;;;;;8.00;3.73;;;;;;;18.92;46.99;99137.25;8450809;28;20202;-63
2021/09/22 09:55:45;;;;;;;8.23;3.63;;;;;;;18.86;47.84;99132.38;8450512;28;20241;-63
2021/09/22 09:59:49;;;;;;;7.47;3.47;;;;;;;18.79;47.30;99125.75;8450454;28;20237;-63
2021/09/22 10:03:54;;;;;;;6.83;3.10;;;;;;;19.10;46.13;99125.66;8450337;28;20198;-64
2021/09/22 10:07:58;;;;;;;8.57;3.23;;;;;;;19.21;45.84;99118.88;8450591;28;20234;-63
2021/09/22 10:12:01;;;;;;;11.47;3.00;;;;;;;19.70;45.49;99111.41;8450178;28;20198;-70
2021/09/22 10:16:04;;;;;;;7.50;3.00;;;;;;;20.01;46.01;99117.34;8450028;28;20205;-70
2021/09/22 10:20:11;;;;;;;6.37;2.80;;;;;;;20.14;44.80;99108.66;8450125;28;20228;-68
2021/09/22 10:24:16;;;;;;;9.33;3.00;;;;;;;20.09;44.76;99094.03;8450011;28;20202;-68
2021/09/22 10:28:33;;;;;;;6.27;2.90;;;;;;;20.11;43.83;99097.41;8449868;28;20233;-67
2021/09/22 10:32:38;;;;;;;5.97;2.60;;;;;;;20.04;44.05;99096.09;8449562;28;20222;-67
2021/09/22 10:36:43;;;;;;;7.53;3.07;;;;;;;20.04;44.27;99090.84;8449474;28;20264;-67
2021/09/22 10:40:51;;;;;;;6.13;2.97;;;;;;;19.79;44.62;99093.41;8449540;28;20233;-67
2021/09/22 10:45:16;;;;;;;5.17;2.80;;;;;;;19.95;44.76;99086.19;8449343;28;20506;-63
2021/09/22 10:49:19;;;;;;;6.93;2.75;;;;;;;20.34;44.09;99092.41;8448389;28;20433;-63
2021/09/22 10:53:37;;;;;;;6.73;2.47;;;;;;;20.35;43.46;99090.59;8448197;28;20438;-63
2021/09/22 10:57:41;;;;;;;8.87;2.80;;;;;;;20.05;44.10;99091.72;8448020;28;20543;-62
2021/09/22 11:01:56;;;;;;;5.80;2.23;;;;;;;20.09;43.64;99088.78;8445939;28;20400;-63
2021/09/22 11:05:59;;;;;;;13.53;2.80;;;;;;;20.45;42.97;99096.97;8448822;28;20262;-62
2021/09/22 11:10:31;;;;;;;6.03;2.72;;;;;;;20.65;41.56;99082.47;8447178;28;20418;-61
2021/09/22 11:14:36;;;;;;;12.47;2.90;;;;;;;20.60;42.30;99072.28;8448851;28;20204;-60
2021/09/22 11:18:47;;;;;;;5.20;2.67;;;;;;;20.48;43.71;99065.16;8448970;28;20224;-61
2021/09/22 11:22:50;;;;;;;6.80;2.67;;;;;;;20.28;43.22;99071.78;8449031;28;20200;-61
2021/09/22 11:26:55;;;;;;;16.17;3.27;;;;;;;20.63;43.63;99065.94;8447235;28;20198;-61
2021/09/22 11:30:58;;;;;;;6.77;2.63;;;;;;;20.68;42.86;99063.84;8448769;28;20591;-61
2021/09/22 11:35:04;;;;;;;5.47;2.80;;;;;;;20.96;42.29;99059.28;8447854;28;20216;-61
2021/09/22 11:39:25;;;;;;;6.20;2.20;;;;;;;20.85;42.22;99052.16;8454372;28;20293;-61
2021/09/22 11:43:32;;;;;;;5.90;2.53;;;;;;;21.10;41.72;99051.28;8454962;28;20198;-61
2021/09/22 11:47:35;;;;;;;5.07;2.53;;;;;;;21.33;40.88;99047.00;8454675;28;20199;-62
2021/09/22 11:51:38;;;;;;;4.97;2.47;;;;;;;21.24;41.32;99051.13;8454692;28;20198;-62
2021/09/22 11:55:43;;;;;;;5.17;2.43;;;;;;;21.31;41.30;99050.72;8454281;28;20230;-63
2021/09/22 11:59:48;;;;;;;5.60;2.60;;;;;;;20.85;41.90;99053.00;8454231;28;20533;-63
2021/09/22 12:03:53;;;;;;;3.77;2.30;;;;;;;21.30;41.51;99049.84;8453405;28;20202;-63
2021/09/22 12:07:56;;;;;;;7.73;2.70;;;;;;;21.49;41.18;99044.13;8454082;28;20406;-64
2021/09/22 12:12:07;;;;;;;4.60;2.50;;;;;;;21.23;41.01;99046.81;8453879;28;20205;-64
2021/09/22 12:16:18;;;;;;;5.60;2.13;;;;;;;21.54;40.13;99038.53;8454221;28;20225;-64
2021/09/22 12:20:21;;;;;;;4.70;2.13;;;;;;;21.06;41.04;99037.50;8453591;28;20228;-65
2021/09/22 12:24:29;;;;;;;9.53;2.50;;;;;;;21.05;41.58;99030.53;8452547;28;20219;-64
2021/09/22 12:28:31;;;;;;;7.40;2.53;;;;;;;21.05;41.69;99027.88;8419833;28;20226;-65
2021/09/22 12:32:50;;;;;;;6.10;2.70;;;;;;;21.79;39.73;99019.13;8418905;28;20735;-66
2021/09/22 12:36:58;;;;;;;6.73;2.30;;;;;;;22.03;38.66;99008.56;8421056;28;20199;-65
2021/09/22 12:41:01;;;;;;;9.13;2.67;;;;;;;21.63;38.85;99015.00;8453064;28;20228;-64
2021/09/22 12:45:06;;;;;;;8.53;2.80;;;;;;;21.04;40.58;99002.53;8453035;28;20208;-64
2021/09/22 12:49:19;;;;;;;6.13;2.43;;;;;;;20.94;41.71;99005.91;8451276;28;20529;-64
2021/09/22 12:53:22;;;;;;;6.83;2.70;;;;;;;21.91;39.46;99005.03;8452767;28;20197;-65
2021/09/22 12:57:47;;;;;;;4.57;2.27;;;;;;;21.60;40.29;99004.66;8452421;28;20226;-65
2021/09/22 13:01:51;;;;;;;5.68;2.50;;;;;;;21.66;39.45;99003.38;8451854;28;20426;-65
2021/09/22 13:06:05;;;;;;;7.23;2.40;;;;;;;22.18;37.57;98990.72;8452026;28;20205;-65
2021/09/22 13:10:09;;;;;;;7.30;2.27;;;;;;;22.54;37.04;98991.53;8452330;28;20230;-65
2021/09/22 13:14:14;;;;;;;5.20;2.30;;;;;;;22.22;38.25;98982.47;8451887;28;20207;-64
2021/09/22 13:18:17;;;;;;;6.30;2.10;;;;;;;22.70;37.48;98984.09;8451557;28;20197;-64
2021/09/22 13:22:21;;;;;;;6.43;2.23;;;;;;;22.65;36.83;98983.59;8451524;28;20199;-64
2021/09/22 13:26:25;;;;;;;4.33;2.30;;;;;;;22.93;36.87;98978.81;8451643;28;20201;-64
2021/09/22 13:30:28;;;;;;;5.97;2.03;;;;;;;22.83;36.57;98979.53;8451485;28;20230;-64
2021/09/22 13:34:31;;;;;;;6.40;2.20;;;;;;;22.37;37.52;98982.25;8451415;28;20218;-63
2021/09/22 13:38:36;;;;;;;5.77;2.00;;;;;;;21.79;38.83;98977.78;8451183;28;20206;-64
2021/09/22 13:42:39;;;;;;;11.80;2.30;;;;;;;21.44;40.08;98983.03;8451049;28;20206;-63
2021/09/22 13:46:46;;;;;;;3.97;2.13;;;;;;;21.83;38.93;98973.13;8450884;28;20563;-64
2021/09/22 13:50:50;;;;;;;7.07;2.30;;;;;;;21.56;38.80;98968.13;8450701;28;20304;-64
2021/09/22 13:54:54;;;;;;;5.53;2.03;;;;;;;22.28;37.27;98960.09;8450402;28;20219;-63
2021/09/22 13:58:57;;;;;;;5.67;2.27;;;;;;;21.84;38.15;98954.56;8450074;28;20227;-64
2021/09/22 14:03:00;;;;;;;5.27;2.10;;;;;;;21.31;39.34;98948.81;8450166;28;20233;-64
2021/09/22 14:07:03;;;;;;;107.87;10.33;;;;;;;21.15;40.04;98945.59;8449965;28;20198;-64
2021/09/22 14:11:08;;;;;;;7.50;2.47;;;;;;;20.84;40.58;98948.63;8449760;28;20201;-64
2021/09/22 14:15:12;;;;;;;5.83;1.60;;;;;;;20.74;40.80;98946.78;8449077;28;20200;-64
2021/09/22 14:19:15;;;;;;;7.70;2.60;;;;;;;20.93;40.94;98943.69;8446549;28;20220;-63
2021/09/22 14:23:19;;;;;;;3.50;2.10;;;;;;;20.97;40.44;98938.06;8449652;28;20192;-65
2021/09/22 14:27:26;;;;;;;9.60;2.37;;;;;;;20.62;40.33;98937.94;8449067;28;20201;-64
2021/09/22 14:31:30;;;;;;;24.13;2.33;;;;;;;20.54;41.17;98945.50;8449511;28;20482;-64
2021/09/22 14:35:33;;;;;;;7.10;2.40;;;;;;;20.66;41.52;98940.25;8448503;28;20320;-64
2021/09/22 14:39:36;;;;;;;22.08;2.83;;;;;;;20.48;41.90;98938.88;8448340;28;20465;-65
2021/09/22 14:43:41;;;;;;;9.80;2.50;;;;;;;20.26;42.72;98937.75;8448496;28;20198;-64
2021/09/22 14:47:46;;;;;;;5.00;2.28;;;;;;;20.65;40.92;98943.00;8446242;28;20421;-64
2021/09/22 14:51:49;;;;;;;5.37;2.40;;;;;;;20.53;41.56;98941.19;8445698;28;20263;-66
2021/09/22 14:55:53;;;;;;;5.20;2.00;;;;;;;21.02;40.26;98938.59;8448877;28;20252;-64
2021/09/22 14:59:58;;;;;;;16.50;2.53;;;;;;;21.11;41.07;98946.78;8448828;28;20261;-65
2021/09/22 15:04:01;;;;;;;11.77;2.50;;;;;;;21.01;41.23;98930.81;8448969;28;20202;-65
2021/09/22 15:08:06;;;;;;;15.23;2.43;;;;;;;21.14;41.17;98923.69;8448973;28;20275;-66
2021/09/22 15:12:10;;;;;;;9.93;2.60;;;;;;;21.20;41.08;98915.34;8451636;28;20278;-66
2021/09/22 15:16:29;;;;;;;8.50;2.40;;;;;;;21.10;41.00;98919.59;8455976;28;20202;-66
2021/09/22 15:20:32;;;;;;;11.57;2.50;;;;;;;20.57;41.23;98921.63;8455277;28;20222;-66
2021/09/22 15:24:35;;;;;;;8.33;2.00;;;;;;;20.44;42.04;98919.81;8454448;28;20190;-65
2021/09/22 15:28:38;;;;;;;17.17;2.73;;;;;;;20.31;42.85;98903.22;8454487;28;20196;-65
2021/09/22 15:32:42;;;;;;;10.80;2.47;;;;;;;20.18;42.99;98902.38;8454318;28;20388;-65
2021/09/22 15:36:45;;;;;;;35.88;3.63;;;;;;;20.54;42.33;98898.13;8451160;28;20494;-66
2021/09/22 15:40:49;;;;;;;10.00;2.20;;;;;;;20.26;42.79;98895.66;8454092;28;20446;-68
2021/09/22 15:44:52;;;;;;;3.43;1.80;;;;;;;20.30;42.57;98894.50;8454044;28;20444;-67
2021/09/22 15:48:56;;;;;;;24.80;2.80;;;;;;;20.26;42.02;98894.81;8453883;28;20203;-67
2021/09/22 15:52:59;;;;;;;11.37;2.40;;;;;;;20.21;42.58;98884.63;8453793;28;20196;-67
2021/09/22 15:57:02;;;;;;;9.33;2.10;;;;;;;20.16;43.04;98878.00;8450585;28;20240;-66
2021/09/22 16:01:05;;;;;;;6.40;2.10;;;;;;;20.10;43.68;98874.84;8450906;28;20408;-67
2021/09/22 16:05:11;;;;;;;4.87;2.07;;;;;;;20.00;43.56;98879.06;8453407;28;20190;-66
2021/09/22 16:09:14;;;;;;;12.97;2.20;;;;;;;19.92;44.55;98878.75;8453312;28;20264;-66
2021/09/22 16:13:17;;;;;;;5.50;1.80;;;;;;;19.90;44.61;98873.59;8453291;28;20575;-66
2021/09/22 16:17:20;;;;;;;14.87;2.53;;;;;;;19.75;44.49;98866.75;8453041;28;20283;-66
2021/09/22 16:21:44;;;;;;;20.50;2.20;;;;;;;19.67;44.66;98866.41;8450307;28;20273;-66
2021/09/22 16:25:47;;;;;;;11.50;2.10;;;;;;;19.54;45.03;98866.38;8452437;28;20195;-66
2021/09/22 16:29:50;;;;;;;11.00;2.23;;;;;;;19.49;45.27;98866.66;8452657;28;20260;-66
2021/09/22 16:33:53;;;;;;;24.50;2.67;;;;;;;19.41;46.21;98870.75;8453447;28;20240;-65
2021/09/22 16:37:57;;;;;;;6.37;2.03;;;;;;;19.32;46.03;98873.06;8453077;28;20273;-67
2021/09/22 16:42:00;;;;;;;6.10;1.90;;;;;;;19.23;47.16;98871.03;8453392;28;20225;-66
2021/09/22 16:46:03;;;;;;;2.87;1.80;;;;;;;19.15;46.71;98857.56;8451112;28;20505;-67
2021/09/22 16:50:08;;;;;;;4.93;2.10;;;;;;;19.05;47.49;98862.56;8452596;28;20210;-66
2021/09/22 16:54:12;;;;;;;5.23;2.30;;;;;;;18.99;48.32;98856.88;8452594;28;20548;-67
2021/09/22 16:58:15;;;;;;;9.07;2.97;;;;;;;18.88;48.42;98854.94;8452517;28;20226;-66
2021/09/22 17:02:18;;;;;;;5.73;3.20;;;;;;;18.82;48.91;98861.41;8452198;28;20263;-66
2021/09/22 17:06:22;;;;;;;7.97;4.60;;;;;;;18.76;49.38;98861.78;8452217;28;20198;-66
2021/09/22 17:10:30;;;;;;;9.50;3.77;;;;;;;18.71;50.80;98859.44;8452234;28;20202;-65
2021/09/22 17:14:33;;;;;;;4.70;3.27;;;;;;;18.59;50.37;98862.84;8452284;28;20268;-66
2021/09/22 17:18:36;;;;;;;53.50;6.23;;;;;;;18.50;50.27;98856.38;8451344;28;20489;-68
2021/09/22 17:22:39;;;;;;;9.00;2.90;;;;;;;18.36;50.48;98852.03;8450543;28;20263;-65
2021/09/22 17:26:45;;;;;;;13.33;3.07;;;;;;;18.29;50.42;98855.94;8448134;28;20198;-66
2021/09/22 17:30:48;;;;;;;12.23;2.70;;;;;;;18.25;50.73;98857.09;8450631;28;20513;-66
2021/09/22 17:34:51;;;;;;;20.90;3.03;;;;;;;18.15;51.52;98858.59;8449252;28;20210;-65
2021/09/22 17:38:54;;;;;;;15.10;2.97;;;;;;;18.10;51.79;98858.88;8450394;28;20190;-65
2021/09/22 17:42:59;;;;;;;17.40;3.77;;;;;;;17.94;52.12;98858.97;8450045;28;20228;-65
2021/09/22 17:47:02;;;;;;;8.47;2.87;;;;;;;17.90;52.30;98861.88;8447241;28;20200;-65
2021/09/22 17:51:08;;;;;;;5.40;2.73;;;;;;;17.81;52.40;98857.16;8449949;28;20275;-66
2021/09/22 17:55:11;;;;;;;12.07;3.00;;;;;;;17.79;51.99;98862.47;8448472;28;20226;-66
2021/09/22 17:59:16;;;;;;;6.38;3.00;;;;;;;18.08;51.38;98860.72;8448586;28;20414;-66
2021/09/22 18:03:19;;;;;;;37.87;4.53;;;;;;;17.71;52.75;98854.25;8450028;28;20267;-65
2021/09/22 18:07:22;;;;;;;6.27;2.83;;;;;;;17.68;52.83;98857.84;8450483;28;20199;-66
2021/09/22 18:11:25;;;;;;;6.63;3.30;;;;;;;17.56;53.15;98861.22;8450464;28;20397;-66
2021/09/22 18:15:29;;;;;;;4.57;3.00;;;;;;;17.52;52.96;98859.72;8450239;28;20210;-65
2021/09/22 18:19:37;;;;;;;7.27;3.33;;;;;;;17.42;53.48;98863.78;8450059;28;20209;-66
2021/09/22 18:23:44;;;;;;;11.03;3.37;;;;;;;17.35;53.20;98861.53;8449930;28;20226;-65
2021/09/22 18:27:48;;;;;;;10.37;3.67;;;;;;;17.25;53.69;98862.13;8449874;28;20202;-66
2021/09/22 18:31:53;;;;;;;7.60;3.30;;;;;;;17.21;53.76;98869.34;8449762;28;20515;-65
2021/09/22 18:36:00;;;;;;;6.10;3.50;;;;;;;17.09;53.89;98856.94;8449566;28;20218;-66
2021/09/22 18:40:03;;;;;;;12.30;3.47;;;;;;;17.19;56.00;98868.56;8449285;28;20194;-66
2021/09/22 18:44:06;;;;;;;7.40;4.13;;;;;;;17.02;53.61;98859.09;8449595;28;20279;-66
2021/09/22 18:48:11;;;;;;;6.43;3.87;;;;;;;16.91;53.95;98864.06;8449411;28;20247;-67
2021/09/22 18:52:14;;;;;;;3.83;3.40;;;;;;;16.90;53.93;98859.75;8449330;28;20234;-66
2021/09/22 18:56:17;;;;;;;6.60;4.30;;;;;;;16.86;54.28;98863.47;8448980;28;20226;-69
2021/09/22 19:00:20;;;;;;;8.10;4.63;;;;;;;16.77;54.56;98865.66;8449230;28;20204;-67